createdAt,value
2023-01-29T00:02:13.849Z,14.10
2023-01-29T00:04:41.863Z,13.80
2023-01-29T00:07:09.825Z,13.70
2023-01-29T00:09:37.886Z,14.20
2023-01-29T00:12:08.833Z,14.20
2023-01-29T00:14:36.777Z,15.10
2023-01-29T00:17:04.702Z,13.90
2023-01-29T00:19:32.651Z,13.90
2023-01-29T00:22:00.580Z,14.70
2023-01-29T00:24:31.297Z,15.50
2023-01-29T00:26:59.328Z,15.00
2023-01-29T00:29:30.907Z,14.60
2023-01-29T00:31:58.972Z,14.20
2023-01-29T00:34:26.993Z,13.70
2023-01-29T00:37:08.475Z,13.90
2023-01-29T00:39:47.778Z,13.60
2023-01-29T00:42:33.837Z,13.10
2023-01-29T00:45:04.543Z,13.30
2023-01-29T00:47:33.319Z,13.60
2023-01-29T00:50:01.867Z,13.20
2023-01-29T00:52:30.117Z,13.20
2023-01-29T00:54:59.290Z,12.60
2023-01-29T00:57:29.224Z,13.20
2023-01-29T00:59:57.165Z,13.30
2023-01-29T01:02:43.947Z,13.00
2023-01-29T01:05:18.050Z,12.70
2023-01-29T01:07:47.114Z,12.20
2023-01-29T01:10:22.891Z,12.30
2023-01-29T01:12:54.235Z,11.60
2023-01-29T01:15:23.033Z,11.70
2023-01-29T01:17:55.825Z,11.80
2023-01-29T01:20:24.140Z,12.70
2023-01-29T01:22:54.138Z,12.00
2023-01-29T01:25:22.583Z,13.00
2023-01-29T01:27:53.681Z,13.60
2023-01-29T01:30:22.342Z,13.30
2023-01-29T01:32:50.460Z,13.30
2023-01-29T01:35:20.089Z,12.30
2023-01-29T01:37:48.168Z,12.20
2023-01-29T01:40:19.201Z,12.30
2023-01-29T01:42:50.106Z,13.00
2023-01-29T01:45:21.340Z,12.30
2023-01-29T01:47:52.307Z,13.40
2023-01-29T01:50:27.710Z,14.40
2023-01-29T01:53:01.086Z,15.20
2023-01-29T01:55:31.314Z,15.50
2023-01-29T01:58:07.074Z,14.90
2023-01-29T02:00:35.656Z,15.20
2023-01-29T02:03:22.031Z,15.50
2023-01-29T02:06:11.667Z,15.80
2023-01-29T02:09:03.747Z,15.50
2023-01-29T02:11:31.891Z,14.80
2023-01-29T02:14:00.685Z,15.30
2023-01-29T02:16:29.636Z,15.30
2023-01-29T02:18:57.991Z,15.00
2023-01-29T02:21:47.241Z,14.80
2023-01-29T02:24:48.700Z,14.30
2023-01-29T02:27:20.936Z,13.40
2023-01-29T02:30:00.268Z,13.30
2023-01-29T02:32:35.781Z,13.10
2023-01-29T02:35:29.667Z,12.80
2023-01-29T02:38:09.538Z,13.90
2023-01-29T02:40:44.034Z,14.60
2023-01-29T02:43:24.353Z,15.40
2023-01-29T02:46:02.395Z,14.90
2023-01-29T02:48:40.092Z,13.80
2023-01-29T02:51:14.903Z,13.40
2023-01-29T02:53:52.700Z,13.60
2023-01-29T02:56:25.131Z,13.60
2023-01-29T02:58:59.129Z,13.20
2023-01-29T03:01:32.191Z,13.40
2023-01-29T03:04:05.184Z,12.80
2023-01-29T03:06:36.586Z,12.90
2023-01-29T03:09:08.679Z,13.70
2023-01-29T03:11:41.678Z,14.00
2023-01-29T03:14:14.205Z,14.10
2023-01-29T03:16:48.633Z,14.10
2023-01-29T03:19:20.415Z,14.50
2023-01-29T03:21:55.208Z,13.80
2023-01-29T03:24:49.004Z,13.00
2023-01-29T03:27:37.736Z,12.70
2023-01-29T03:30:27.975Z,13.30
2023-01-29T03:33:08.787Z,13.50
2023-01-29T03:35:41.164Z,13.40
2023-01-29T03:38:10.917Z,13.90
2023-01-29T03:40:46.865Z,13.50
2023-01-29T03:43:27.808Z,13.70
2023-01-29T03:46:04.394Z,14.30
2023-01-29T03:48:38.761Z,14.10
2023-01-29T03:51:19.622Z,14.30
2023-01-29T03:53:52.449Z,14.00
2023-01-29T03:56:34.062Z,13.60
2023-01-29T03:59:05.429Z,13.10
2023-01-29T04:01:57.098Z,13.10
2023-01-29T04:04:30.038Z,13.00
2023-01-29T04:07:04.451Z,12.30
2023-01-29T04:09:36.346Z,11.90
2023-01-29T04:12:09.086Z,11.90
2023-01-29T04:14:40.345Z,12.60
2023-01-29T04:17:13.406Z,12.70
2023-01-29T04:19:54.521Z,13.30
2023-01-29T04:22:27.231Z,13.20
2023-01-29T04:24:55.597Z,12.60
2023-01-29T04:27:30.782Z,12.70
2023-01-29T04:30:11.553Z,12.10
2023-01-29T04:32:58.399Z,11.30
2023-01-29T04:35:33.472Z,11.10
2023-01-29T04:38:13.446Z,11.40
2023-01-29T04:40:51.847Z,11.80
2023-01-29T04:43:29.575Z,11.80
2023-01-29T04:46:09.277Z,11.70
2023-01-29T04:48:57.826Z,11.70
2023-01-29T04:51:36.950Z,12.40
2023-01-29T04:54:13.347Z,12.10
2023-01-29T04:56:48.795Z,11.90
2023-01-29T04:59:22.835Z,11.50
2023-01-29T05:01:50.925Z,10.80
2023-01-29T05:04:22.708Z,10.20
2023-01-29T05:06:52.839Z,10.20
2023-01-29T05:09:21.294Z,10.20
2023-01-29T05:11:50.923Z,10.40
2023-01-29T05:14:20.743Z,10.10
2023-01-29T05:16:53.420Z,10.50
2023-01-29T05:19:21.347Z,10.80
2023-01-29T05:21:51.849Z,11.10
2023-01-29T05:24:22.265Z,11.10
2023-01-29T05:27:10.344Z,10.80
2023-01-29T05:29:38.375Z,10.10
2023-01-29T05:32:06.532Z,9.80
2023-01-29T05:34:34.617Z,9.70
2023-01-29T05:37:03.942Z,10.00
2023-01-29T05:39:31.851Z,10.00
2023-01-29T05:42:00.095Z,9.60
2023-01-29T05:44:28.106Z,9.60
2023-01-29T05:46:56.070Z,9.60
2023-01-29T05:49:24.141Z,10.20
2023-01-29T05:51:52.044Z,10.40
2023-01-29T05:54:21.872Z,10.20
2023-01-29T05:56:49.799Z,9.90
2023-01-29T05:59:17.736Z,9.60
2023-01-29T06:01:45.753Z,10.10
2023-01-29T06:04:13.715Z,10.60
2023-01-29T06:06:41.635Z,10.60
2023-01-29T06:09:11.761Z,11.00
2023-01-29T06:11:41.259Z,11.80
2023-01-29T06:14:09.274Z,11.60
2023-01-29T06:16:37.192Z,11.40
2023-01-29T06:19:05.336Z,10.60
2023-01-29T06:21:33.297Z,9.90
2023-01-29T06:24:01.344Z,9.50
2023-01-29T06:26:29.375Z,9.50
2023-01-29T06:28:58.649Z,9.80
2023-01-29T06:31:38.464Z,10.20
2023-01-29T06:34:07.379Z,9.90
2023-01-29T06:36:35.725Z,10.30
2023-01-29T06:39:03.982Z,10.10
2023-01-29T06:41:32.084Z,10.30
2023-01-29T06:44:01.382Z,10.60
2023-01-29T06:46:31.145Z,10.50
2023-01-29T06:49:00.823Z,9.80
2023-01-29T06:51:29.063Z,10.00
2023-01-29T06:53:57.056Z,10.00
2023-01-29T06:56:25.465Z,11.10
2023-01-29T06:58:53.380Z,11.20
2023-01-29T07:01:35.122Z,11.90
2023-01-29T07:04:04.667Z,12.00
2023-01-29T07:06:35.183Z,11.60
2023-01-29T07:09:03.555Z,12.10
2023-01-29T07:11:32.047Z,12.80
2023-01-29T07:13:59.995Z,13.20
2023-01-29T07:16:31.614Z,12.90
2023-01-29T07:18:59.706Z,13.30
2023-01-29T07:21:28.000Z,13.80
2023-01-29T07:23:56.221Z,14.10
2023-01-29T07:26:24.301Z,14.00
2023-01-29T07:28:52.211Z,14.40
2023-01-29T07:31:20.240Z,14.30
2023-01-29T07:33:49.585Z,14.00
2023-01-29T07:36:18.230Z,14.20
2023-01-29T07:38:50.693Z,13.70
2023-01-29T07:41:18.650Z,13.70
2023-01-29T07:43:47.851Z,13.80
2023-01-29T07:46:15.866Z,13.60
2023-01-29T07:48:43.834Z,13.90
2023-01-29T07:51:13.089Z,13.10
2023-01-29T07:53:41.248Z,12.40
2023-01-29T07:56:09.374Z,11.80
2023-01-29T07:58:37.311Z,11.80
2023-01-29T08:01:08.140Z,11.70
2023-01-29T08:03:36.476Z,11.40
2023-01-29T08:06:05.252Z,11.50
2023-01-29T08:08:37.374Z,11.50
2023-01-29T08:11:06.122Z,11.50
2023-01-29T08:13:34.944Z,11.50
2023-01-29T08:16:04.039Z,11.40
2023-01-29T08:18:32.353Z,11.20
2023-01-29T08:21:01.919Z,12.10
2023-01-29T08:23:29.935Z,12.30
2023-01-29T08:25:59.359Z,11.60
2023-01-29T08:28:27.750Z,11.30
2023-01-29T08:30:57.714Z,11.50
2023-01-29T08:33:43.421Z,10.90
2023-01-29T08:36:11.630Z,10.90
2023-01-29T08:38:39.719Z,10.90
2023-01-29T08:41:09.187Z,11.10
2023-01-29T08:43:38.470Z,10.90
2023-01-29T08:46:07.077Z,10.90
2023-01-29T08:48:35.440Z,10.80
2023-01-29T08:51:04.493Z,10.90
2023-01-29T08:53:33.146Z,11.00
2023-01-29T08:56:01.270Z,11.10
2023-01-29T08:58:32.566Z,11.30
2023-01-29T09:01:09.974Z,11.00
2023-01-29T09:03:40.828Z,11.00
2023-01-29T09:06:10.675Z,10.30
2023-01-29T09:08:38.798Z,10.00
2023-01-29T09:11:07.286Z,10.40
2023-01-29T09:13:36.558Z,10.90
2023-01-29T09:16:05.592Z,10.60
2023-01-29T09:18:33.728Z,10.50
2023-01-29T09:21:02.652Z,10.30
2023-01-29T09:23:31.303Z,10.30
2023-01-29T09:25:59.537Z,10.40
2023-01-29T09:28:27.735Z,10.40
2023-01-29T09:30:57.834Z,10.40
2023-01-29T09:33:26.146Z,10.70
2023-01-29T09:35:54.351Z,10.60
2023-01-29T09:38:22.288Z,9.80
2023-01-29T09:40:59.210Z,9.50
2023-01-29T09:43:44.286Z,9.40
2023-01-29T09:46:21.868Z,9.30
2023-01-29T09:48:55.413Z,10.00
2023-01-29T09:51:30.130Z,10.00
2023-01-29T09:54:09.639Z,9.70
2023-01-29T09:56:37.713Z,9.60
2023-01-29T09:59:05.741Z,9.10
2023-01-29T10:01:43.554Z,9.10
2023-01-29T10:04:42.140Z,8.90
2023-01-29T10:07:27.535Z,8.90
2023-01-29T10:10:14.536Z,9.00
2023-01-29T10:13:01.935Z,9.20
2023-01-29T10:15:43.240Z,9.10
2023-01-29T10:18:53.632Z,9.80
2023-01-29T10:21:38.558Z,9.70
2023-01-29T10:24:18.210Z,10.00
2023-01-29T10:26:46.243Z,10.00
2023-01-29T10:29:19.620Z,10.10
2023-01-29T10:31:52.380Z,10.30
2023-01-29T10:34:28.662Z,10.40
2023-01-29T10:36:57.489Z,9.80
2023-01-29T10:39:27.490Z,9.30
2023-01-29T10:42:03.448Z,8.70
2023-01-29T10:44:42.654Z,9.10
2023-01-29T10:47:30.690Z,9.60
2023-01-29T10:50:19.405Z,9.40
2023-01-29T10:53:06.044Z,9.90
2023-01-29T10:55:48.017Z,10.20
2023-01-29T10:58:26.851Z,9.70
2023-01-29T11:00:55.075Z,9.70
2023-01-29T11:03:28.923Z,9.00
2023-01-29T11:06:05.183Z,9.00
2023-01-29T11:08:38.314Z,9.00
2023-01-29T11:11:09.607Z,8.90
2023-01-29T11:13:43.372Z,8.70
2023-01-29T11:16:12.021Z,8.80
2023-01-29T11:18:57.295Z,9.00
2023-01-29T11:21:29.361Z,8.70
2023-01-29T11:24:09.064Z,8.70
2023-01-29T11:26:40.296Z,8.30
2023-01-29T11:29:34.740Z,8.40
2023-01-29T11:32:06.118Z,7.90
2023-01-29T11:34:34.113Z,8.30
2023-01-29T11:37:04.565Z,9.20
2023-01-29T11:39:33.686Z,9.50
2023-01-29T11:42:03.655Z,9.70
2023-01-29T11:44:33.836Z,9.40
2023-01-29T11:47:13.361Z,9.30
2023-01-29T11:49:45.457Z,9.60
2023-01-29T11:52:16.360Z,9.30
2023-01-29T11:54:50.048Z,9.60
2023-01-29T11:57:27.260Z,9.20
2023-01-29T11:59:57.459Z,8.90
2023-01-29T12:02:31.432Z,8.50
2023-01-29T12:05:02.977Z,8.30
2023-01-29T12:07:33.683Z,8.00
2023-01-29T12:10:01.989Z,8.00
2023-01-29T12:12:33.274Z,8.10
2023-01-29T12:15:20.592Z,7.70
2023-01-29T12:18:13.563Z,8.00
2023-01-29T12:20:45.969Z,7.90
2023-01-29T12:23:28.231Z,7.90
2023-01-29T12:26:02.502Z,8.00
2023-01-29T12:28:43.256Z,8.60
2023-01-29T12:31:27.077Z,8.20
2023-01-29T12:34:02.406Z,8.30
2023-01-29T12:36:35.936Z,8.50
2023-01-29T12:39:07.515Z,8.70
2023-01-29T12:41:42.485Z,8.70
2023-01-29T12:44:17.966Z,8.90
2023-01-29T12:46:50.412Z,8.90
2023-01-29T12:49:23.059Z,8.90
2023-01-29T12:51:57.179Z,8.90
2023-01-29T12:54:40.273Z,8.90
2023-01-29T12:57:21.903Z,9.10
2023-01-29T12:59:56.179Z,9.50
2023-01-29T13:02:33.482Z,9.30
2023-01-29T13:05:09.145Z,8.90
2023-01-29T13:07:46.058Z,8.50
2023-01-29T13:10:20.264Z,8.50
2023-01-29T13:12:56.207Z,8.40
2023-01-29T13:15:29.691Z,8.90
2023-01-29T13:18:03.738Z,8.80
2023-01-29T13:20:34.883Z,8.80
2023-01-29T13:23:19.901Z,8.90
2023-01-29T13:25:51.575Z,9.10
2023-01-29T13:28:21.261Z,8.50
2023-01-29T13:31:14.365Z,8.30
2023-01-29T13:33:44.424Z,8.10
2023-01-29T13:36:17.685Z,8.90
2023-01-29T13:38:46.011Z,8.70
2023-01-29T13:41:16.077Z,9.00
2023-01-29T13:43:50.729Z,9.20
2023-01-29T13:46:21.348Z,8.60
2023-01-29T13:48:54.546Z,8.40
2023-01-29T13:51:29.666Z,8.10
2023-01-29T13:54:01.645Z,7.90
2023-01-29T13:56:43.626Z,8.00
2023-01-29T13:59:23.783Z,8.20
2023-01-29T14:02:20.115Z,8.60
2023-01-29T14:04:48.418Z,8.40
2023-01-29T14:07:56.096Z,8.20
2023-01-29T14:10:25.019Z,8.30
2023-01-29T14:12:55.589Z,8.60
2023-01-29T14:15:29.618Z,8.80
2023-01-29T14:18:14.132Z,8.80
2023-01-29T14:20:51.467Z,9.20
2023-01-29T14:23:30.470Z,9.10
2023-01-29T14:26:00.516Z,8.60
2023-01-29T14:28:31.803Z,8.40
2023-01-29T14:31:00.521Z,8.30
2023-01-29T14:33:34.312Z,8.20
2023-01-29T14:36:09.343Z,8.90
2023-01-29T14:38:37.629Z,9.50
2023-01-29T14:41:14.851Z,8.70
2023-01-29T14:43:44.083Z,8.80
2023-01-29T14:46:52.931Z,8.80
2023-01-29T14:49:55.120Z,9.00
2023-01-29T14:52:27.833Z,9.10
2023-01-29T14:55:00.574Z,9.20
2023-01-29T14:57:31.278Z,9.50
2023-01-29T15:00:05.409Z,9.40
2023-01-29T15:02:40.588Z,9.90
2023-01-29T15:05:12.353Z,10.40
2023-01-29T15:07:45.097Z,11.00
2023-01-29T15:10:22.680Z,10.80
2023-01-29T15:12:58.133Z,10.50
2023-01-29T15:15:38.800Z,10.20
2023-01-29T15:18:10.159Z,9.90
2023-01-29T15:20:39.743Z,10.20
2023-01-29T15:23:29.230Z,10.30
2023-01-29T15:26:01.572Z,9.40
2023-01-29T15:28:34.958Z,9.40
2023-01-29T15:31:11.989Z,9.60
2023-01-29T15:33:43.666Z,9.90
2023-01-29T15:36:19.911Z,10.10
2023-01-29T15:38:48.207Z,10.20
2023-01-29T15:41:19.782Z,9.70
2023-01-29T15:43:49.623Z,9.50
2023-01-29T15:46:25.656Z,9.90
2023-01-29T15:48:54.855Z,10.20
2023-01-29T15:51:29.491Z,9.90
2023-01-29T15:53:59.431Z,10.50
2023-01-29T15:56:31.996Z,10.70
2023-01-29T15:59:07.287Z,10.60
2023-01-29T16:01:38.647Z,10.90
2023-01-29T16:04:06.915Z,11.60
2023-01-29T16:06:38.058Z,11.80
2023-01-29T16:09:09.269Z,12.50
2023-01-29T16:11:37.690Z,11.70
2023-01-29T16:14:07.491Z,12.10
2023-01-29T16:16:35.719Z,11.60
2023-01-29T16:19:15.398Z,11.30
2023-01-29T16:21:45.944Z,11.10
2023-01-29T16:24:22.228Z,10.70
2023-01-29T16:26:51.953Z,11.70
2023-01-29T16:29:22.687Z,11.70
2023-01-29T16:31:53.869Z,11.60
2023-01-29T16:34:29.079Z,11.40
2023-01-29T16:36:58.031Z,11.20
2023-01-29T16:39:30.972Z,10.80
2023-01-29T16:42:26.825Z,10.40
2023-01-29T16:44:57.586Z,10.50
2023-01-29T16:47:30.483Z,10.40
2023-01-29T16:50:01.688Z,10.80
2023-01-29T16:52:31.477Z,10.80
2023-01-29T16:55:17.041Z,10.80
2023-01-29T16:57:48.763Z,11.40
2023-01-29T17:00:23.166Z,12.40
2023-01-29T17:02:55.123Z,12.70
2023-01-29T17:05:30.343Z,13.30
2023-01-29T17:07:59.280Z,13.20
2023-01-29T17:10:31.573Z,14.00
2023-01-29T17:13:04.053Z,13.50
2023-01-29T17:15:35.891Z,13.50
2023-01-29T17:18:04.896Z,13.50
2023-01-29T17:20:34.310Z,13.50
2023-01-29T17:23:02.224Z,14.10
2023-01-29T17:25:30.675Z,12.90
2023-01-29T17:28:01.528Z,12.50
2023-01-29T17:30:34.480Z,11.60
2023-01-29T17:33:03.310Z,11.60
2023-01-29T17:35:31.270Z,11.70
2023-01-29T17:38:00.578Z,11.40
2023-01-29T17:40:34.889Z,11.50
2023-01-29T17:43:02.826Z,11.60
2023-01-29T17:45:30.806Z,11.10
2023-01-29T17:47:59.297Z,11.20
2023-01-29T17:50:29.904Z,11.10
2023-01-29T17:52:57.901Z,10.80
2023-01-29T17:55:27.950Z,10.30
2023-01-29T17:57:55.851Z,10.40
2023-01-29T18:00:25.034Z,10.10
2023-01-29T18:02:54.290Z,9.80
2023-01-29T18:05:22.191Z,9.60
2023-01-29T18:07:52.165Z,10.30
2023-01-29T18:10:22.900Z,10.20
2023-01-29T18:12:52.209Z,10.40
2023-01-29T18:15:20.473Z,10.20
2023-01-29T18:17:52.064Z,9.90
2023-01-29T18:20:23.637Z,9.80
2023-01-29T18:22:51.678Z,9.20
2023-01-29T18:25:20.776Z,9.10
2023-01-29T18:27:48.979Z,9.10
2023-01-29T18:30:18.761Z,8.90
2023-01-29T18:32:47.429Z,8.90
2023-01-29T18:35:16.132Z,8.60
2023-01-29T18:37:44.600Z,8.10
2023-01-29T18:40:13.827Z,8.20
2023-01-29T18:42:41.903Z,8.80
2023-01-29T18:45:12.058Z,8.80
2023-01-29T18:47:41.617Z,8.70
2023-01-29T18:50:11.562Z,8.50
2023-01-29T18:52:40.766Z,8.70
2023-01-29T18:55:09.857Z,8.50
2023-01-29T18:58:26.205Z,8.90
2023-01-29T19:00:29.138Z,9.00
2023-01-29T19:02:58.417Z,9.80
2023-01-29T19:05:26.366Z,10.00
2023-01-29T19:07:54.316Z,9.80
2023-01-29T19:10:22.630Z,10.50
2023-01-29T19:12:50.592Z,11.30
2023-01-29T19:15:20.604Z,11.60
2023-01-29T19:17:48.563Z,10.80
2023-01-29T19:20:18.489Z,10.80
2023-01-29T19:22:46.471Z,11.20
2023-01-29T19:25:14.392Z,11.30
2023-01-29T19:27:42.533Z,10.90
2023-01-29T19:30:12.911Z,10.90
2023-01-29T19:32:40.910Z,10.10
2023-01-29T19:35:09.215Z,9.70
2023-01-29T19:37:38.471Z,10.00
2023-01-29T19:40:08.464Z,11.20
2023-01-29T19:42:37.505Z,11.20
2023-01-29T19:45:07.029Z,11.10
2023-01-29T19:47:39.770Z,11.20
2023-01-29T19:50:08.325Z,11.30
2023-01-29T19:52:50.184Z,11.10
2023-01-29T19:55:21.556Z,10.90
2023-01-29T19:57:49.558Z,10.80
2023-01-29T20:00:19.606Z,10.00
2023-01-29T20:02:49.949Z,9.80
2023-01-29T20:05:18.675Z,9.90
2023-01-29T20:07:49.960Z,9.90
2023-01-29T20:10:18.692Z,9.40
2023-01-29T20:12:51.548Z,9.50
2023-01-29T20:15:19.483Z,9.60
2023-01-29T20:17:47.402Z,10.30
2023-01-29T20:20:16.824Z,10.00
2023-01-29T20:22:45.085Z,9.50
2023-01-29T20:25:13.601Z,9.40
2023-01-29T20:27:42.147Z,9.50
2023-01-29T20:30:13.366Z,9.00
2023-01-29T20:32:41.485Z,8.70
2023-01-29T20:35:13.331Z,9.10
2023-01-29T20:37:41.258Z,9.30
2023-01-29T20:40:12.480Z,9.80
2023-01-29T20:42:40.386Z,9.50
2023-01-29T20:45:12.220Z,9.50
2023-01-29T20:47:42.262Z,9.10
2023-01-29T20:50:13.561Z,8.50
2023-01-29T20:52:42.740Z,8.50
2023-01-29T20:55:13.378Z,8.80
2023-01-29T20:57:41.489Z,9.10
2023-01-29T21:00:12.912Z,9.50
2023-01-29T21:02:40.914Z,9.40
2023-01-29T21:05:09.150Z,9.60
2023-01-29T21:07:37.206Z,9.80
2023-01-29T21:10:05.687Z,9.70
2023-01-29T21:12:34.182Z,10.00
2023-01-29T21:15:02.098Z,10.20
2023-01-29T21:17:31.470Z,10.20
2023-01-29T21:19:59.424Z,10.20
2023-01-29T21:22:27.556Z,10.20
2023-01-29T21:24:55.822Z,10.70
2023-01-29T21:27:24.746Z,10.70
2023-01-29T21:29:52.715Z,10.40
2023-01-29T21:32:20.595Z,10.40
2023-01-29T21:34:52.495Z,9.80
2023-01-29T21:37:20.759Z,10.30
2023-01-29T21:39:49.599Z,10.20
2023-01-29T21:42:35.214Z,10.40
2023-01-29T21:45:03.202Z,10.70
2023-01-29T21:47:31.107Z,11.00
2023-01-29T21:50:00.383Z,11.40
2023-01-29T21:52:28.420Z,12.20
2023-01-29T21:54:57.356Z,11.60
2023-01-29T21:57:29.416Z,12.30
2023-01-29T21:59:59.240Z,11.90
2023-01-29T22:02:30.724Z,12.20
2023-01-29T22:05:17.592Z,12.40
2023-01-29T22:07:46.502Z,12.20
2023-01-29T22:10:15.570Z,12.30
2023-01-29T22:12:44.491Z,12.40
2023-01-29T22:15:13.395Z,12.60
2023-01-29T22:17:42.160Z,12.60
2023-01-29T22:20:13.483Z,12.30
2023-01-29T22:22:41.588Z,11.80
2023-01-29T22:25:10.420Z,11.80
2023-01-29T22:27:38.483Z,11.80
2023-01-29T22:30:09.013Z,11.20
2023-01-29T22:32:36.970Z,11.60
2023-01-29T22:35:05.417Z,12.10
2023-01-29T22:37:34.688Z,11.90
2023-01-29T22:40:02.604Z,12.50
2023-01-29T22:42:30.519Z,12.00
2023-01-29T22:44:58.478Z,12.20
2023-01-29T22:47:26.373Z,12.60
2023-01-29T22:49:54.280Z,12.90
2023-01-29T22:52:22.464Z,12.90
2023-01-29T22:54:52.243Z,12.70
2023-01-29T22:57:20.406Z,12.90
2023-01-29T22:59:48.327Z,12.50
2023-01-29T23:02:16.404Z,11.90
2023-01-29T23:04:44.417Z,11.60
2023-01-29T23:07:15.051Z,11.50
2023-01-29T23:09:42.986Z,11.40
2023-01-29T23:12:12.312Z,11.00
2023-01-29T23:14:40.708Z,10.70
2023-01-29T23:17:11.774Z,11.00
2023-01-29T23:19:39.727Z,11.00
2023-01-29T23:22:07.632Z,11.30
2023-01-29T23:24:35.551Z,10.50
2023-01-29T23:27:14.589Z,10.50
2023-01-29T23:29:44.465Z,10.40
2023-01-29T23:32:14.663Z,10.60
2023-01-29T23:34:42.731Z,10.30
2023-01-29T23:37:10.883Z,10.50
2023-01-29T23:39:38.865Z,10.10
2023-01-29T23:42:07.114Z,9.50
2023-01-29T23:44:35.552Z,9.40
2023-01-29T23:47:04.856Z,9.70
2023-01-29T23:49:32.847Z,10.30
2023-01-29T23:52:00.821Z,10.70
2023-01-29T23:54:29.173Z,10.80
2023-01-29T23:56:57.126Z,11.20
2023-01-29T23:59:28.478Z,11.00
